sensor_id;sensor_type;location;lat;lon;timestamp;pressure;altitude;pressure_sealevel;temperature;humidity
6599;BME280;3335;43.198;27.918;2022-11-13T00:01:10;150185.66;;;11.72;100.00
6599;BME280;3335;43.198;27.918;2022-11-13T00:03:39;150178.16;;;11.69;100.00
6599;BME280;3335;43.198;27.918;2022-11-13T00:06:06;150175.66;;;11.68;100.00
6599;BME280;3335;43.198;27.918;2022-11-13T00:08:33;150173.16;;;11.67;100.00
6599;BME280;3335;43.198;27.918;2022-11-13T00:11:01;150168.13;;;11.65;100.00
6599;BME280;3335;43.198;27.918;2022-11-13T00:13:29;150168.13;;;11.65;100.00
6599;BME280;3335;43.198;27.918;2022-11-13T00:15:58;150173.16;;;11.67;100.00
6599;BME280;3335;43.198;27.918;2022-11-13T00:18:25;150158.13;;;11.61;100.00
6599;BME280;3335;43.198;27.918;2022-11-13T00:20:54;150178.16;;;11.69;100.00
6599;BME280;3335;43.198;27.918;2022-11-13T00:23:21;150174.41;;;11.67;100.00
6599;BME280;3335;43.198;27.918;2022-11-13T00:25:48;150155.63;;;11.60;100.00
6599;BME280;3335;43.198;27.918;2022-11-13T00:28:15;150168.13;;;11.65;100.00
6599;BME280;3335;43.198;27.918;2022-11-13T00:30:42;150179.38;;;11.69;100.00
6599;BME280;3335;43.198;27.918;2022-11-13T00:33:09;150156.88;;;11.60;100.00
6599;BME280;3335;43.198;27.918;2022-11-13T00:35:35;150158.13;;;11.61;100.00
6599;BME280;3335;43.198;27.918;2022-11-13T00:38:04;150171.88;;;11.66;100.00
6599;BME280;3335;43.198;27.918;2022-11-13T00:40:31;150165.66;;;11.64;100.00
6599;BME280;3335;43.198;27.918;2022-11-13T00:42:57;150140.66;;;11.54;100.00
6599;BME280;3335;43.198;27.918;2022-11-13T00:45:24;150138.16;;;11.53;100.00
6599;BME280;3335;43.198;27.918;2022-11-13T00:47:51;150158.13;;;11.61;100.00
6599;BME280;3335;43.198;27.918;2022-11-13T00:50:18;150141.91;;;11.54;100.00
6599;BME280;3335;43.198;27.918;2022-11-13T00:52:45;150125.63;;;11.48;100.00
6599;BME280;3335;43.198;27.918;2022-11-13T00:55:13;150120.63;;;11.46;100.00
6599;BME280;3335;43.198;27.918;2022-11-13T00:57:40;150108.13;;;11.40;100.00
6599;BME280;3335;43.198;27.918;2022-11-13T01:00:08;150116.91;;;11.44;100.00
6599;BME280;3335;43.198;27.918;2022-11-13T01:02:35;150114.38;;;11.43;100.00
6599;BME280;3335;43.198;27.918;2022-11-13T01:05:03;150113.13;;;11.43;100.00
6599;BME280;3335;43.198;27.918;2022-11-13T01:07:30;150120.63;;;11.46;100.00
6599;BME280;3335;43.198;27.918;2022-11-13T01:09:57;150110.63;;;11.41;100.00
6599;BME280;3335;43.198;27.918;2022-11-13T01:12:25;150109.38;;;11.41;100.00
6599;BME280;3335;43.198;27.918;2022-11-13T01:14:52;150114.38;;;11.43;100.00
6599;BME280;3335;43.198;27.918;2022-11-13T01:17:19;150123.13;;;11.47;100.00
6599;BME280;3335;43.198;27.918;2022-11-13T01:19:46;150111.88;;;11.42;100.00
6599;BME280;3335;43.198;27.918;2022-11-13T01:22:13;150065.63;;;11.23;100.00
6599;BME280;3335;43.198;27.918;2022-11-13T01:24:40;150113.13;;;11.43;100.00
6599;BME280;3335;43.198;27.918;2022-11-13T01:27:07;150049.38;;;11.17;100.00
6599;BME280;3335;43.198;27.918;2022-11-13T01:29:36;150105.66;;;11.39;100.00
6599;BME280;3335;43.198;27.918;2022-11-13T01:32:03;150113.13;;;11.43;100.00
6599;BME280;3335;43.198;27.918;2022-11-13T01:34:30;150118.16;;;11.45;100.00
6599;BME280;3335;43.198;27.918;2022-11-13T01:36:57;150053.13;;;11.18;100.00
6599;BME280;3335;43.198;27.918;2022-11-13T01:39:24;150123.13;;;11.47;100.00
6599;BME280;3335;43.198;27.918;2022-11-13T01:41:51;150108.13;;;11.40;100.00
6599;BME280;3335;43.198;27.918;2022-11-13T01:44:18;149963.19;;;10.82;100.00
6599;BME280;3335;43.198;27.918;2022-11-13T01:46:48;150121.88;;;11.46;100.00
6599;BME280;3335;43.198;27.918;2022-11-13T01:49:25;150118.16;;;11.45;100.00
6599;BME280;3335;43.198;27.918;2022-11-13T01:51:55;150110.63;;;11.41;100.00
6599;BME280;3335;43.198;27.918;2022-11-13T01:54:26;150103.13;;;11.38;100.00
6599;BME280;3335;43.198;27.918;2022-11-13T01:56:55;150084.38;;;11.31;100.00
6599;BME280;3335;43.198;27.918;2022-11-13T01:59:25;150098.13;;;11.36;100.00
6599;BME280;3335;43.198;27.918;2022-11-13T02:01:55;150098.13;;;11.36;100.00
6599;BME280;3335;43.198;27.918;2022-11-13T02:04:22;150103.13;;;11.38;100.00
6599;BME280;3335;43.198;27.918;2022-11-13T02:06:53;150095.66;;;11.35;100.00
6599;BME280;3335;43.198;27.918;2022-11-13T02:09:23;150090.63;;;11.33;100.00
6599;BME280;3335;43.198;27.918;2022-11-13T02:11:52;150085.63;;;11.31;100.00
6599;BME280;3335;43.198;27.918;2022-11-13T02:14:20;150083.16;;;11.30;100.00
6599;BME280;3335;43.198;27.918;2022-11-13T02:16:50;150070.66;;;11.25;100.00
6599;BME280;3335;43.198;27.918;2022-11-13T02:19:24;150053.13;;;11.18;100.00
6599;BME280;3335;43.198;27.918;2022-11-13T02:21:55;150040.63;;;11.13;100.00
6599;BME280;3335;43.198;27.918;2022-11-13T02:24:28;150025.63;;;11.07;100.00
6599;BME280;3335;43.198;27.918;2022-11-13T02:26:59;149988.19;;;10.92;100.00
6599;BME280;3335;43.198;27.918;2022-11-13T02:29:28;150008.16;;;11.00;100.00
6599;BME280;3335;43.198;27.918;2022-11-13T02:31:55;149981.91;;;10.89;100.00
6599;BME280;3335;43.198;27.918;2022-11-13T02:34:22;149991.88;;;10.93;100.00
6599;BME280;3335;43.198;27.918;2022-11-13T02:36:49;149986.91;;;10.91;100.00
6599;BME280;3335;43.198;27.918;2022-11-13T02:39:15;149971.91;;;10.85;100.00
6599;BME280;3335;43.198;27.918;2022-11-13T02:41:44;149963.19;;;10.82;100.00
6599;BME280;3335;43.198;27.918;2022-11-13T02:44:11;149960.69;;;10.81;100.00
6599;BME280;3335;43.198;27.918;2022-11-13T02:46:37;149953.19;;;10.78;100.00
6599;BME280;3335;43.198;27.918;2022-11-13T02:49:04;149948.19;;;10.76;100.00
6599;BME280;3335;43.198;27.918;2022-11-13T02:51:32;149935.69;;;10.71;100.00
6599;BME280;3335;43.198;27.918;2022-11-13T02:53:59;149925.69;;;10.67;100.00
6599;BME280;3335;43.198;27.918;2022-11-13T02:56:26;149727.06;;;9.86;100.00
6599;BME280;3335;43.198;27.918;2022-11-13T02:58:54;149923.19;;;10.66;100.00
6599;BME280;3335;43.198;27.918;2022-11-13T03:01:21;149889.47;;;10.52;100.00
6599;BME280;3335;43.198;27.918;2022-11-13T03:03:48;149898.19;;;10.56;100.00
6599;BME280;3335;43.198;27.918;2022-11-13T03:06:15;149898.19;;;10.56;100.00
6599;BME280;3335;43.198;27.918;2022-11-13T03:08:42;149898.19;;;10.56;100.00
6599;BME280;3335;43.198;27.918;2022-11-13T03:11:10;149890.72;;;10.52;100.00
6599;BME280;3335;43.198;27.918;2022-11-13T03:13:37;149875.72;;;10.46;100.00
6599;BME280;3335;43.198;27.918;2022-11-13T03:16:11;149878.22;;;10.47;100.00
6599;BME280;3335;43.198;27.918;2022-11-13T03:18:39;149868.22;;;10.43;100.00
6599;BME280;3335;43.198;27.918;2022-11-13T03:21:08;149850.72;;;10.36;100.00
6599;BME280;3335;43.198;27.918;2022-11-13T03:23:35;149828.25;;;10.27;100.00
6599;BME280;3335;43.198;27.918;2022-11-13T03:26:04;149833.25;;;10.29;100.00
6599;BME280;3335;43.198;27.918;2022-11-13T03:28:32;149812.03;;;10.21;100.00
6599;BME280;3335;43.198;27.918;2022-11-13T03:30:59;149813.28;;;10.21;100.00
6599;BME280;3335;43.198;27.918;2022-11-13T03:33:27;149753.31;;;9.97;100.00
6599;BME280;3335;43.198;27.918;2022-11-13T03:35:54;149710.81;;;9.80;100.00
6599;BME280;3335;43.198;27.918;2022-11-13T03:38:22;149778.28;;;10.07;100.00
6599;BME280;3335;43.198;27.918;2022-11-13T03:40:49;149762.03;;;10.00;100.00
6599;BME280;3335;43.198;27.918;2022-11-13T03:43:16;149735.78;;;9.90;100.00
6599;BME280;3335;43.198;27.918;2022-11-13T03:45:44;149715.84;;;9.82;100.00
6599;BME280;3335;43.198;27.918;2022-11-13T03:48:11;149683.38;;;9.69;100.00
6599;BME280;3335;43.198;27.918;2022-11-13T03:50:42;149678.38;;;9.66;100.00
6599;BME280;3335;43.198;27.918;2022-11-13T03:53:09;149683.38;;;9.69;100.00
6599;BME280;3335;43.198;27.918;2022-11-13T03:55:36;149674.63;;;9.65;100.00
6599;BME280;3335;43.198;27.918;2022-11-13T03:58:03;149664.63;;;9.61;100.00
6599;BME280;3335;43.198;27.918;2022-11-13T04:00:31;149598.50;;;9.34;100.00
6599;BME280;3335;43.198;27.918;2022-11-13T04:02:58;149634.69;;;9.49;100.00
6599;BME280;3335;43.198;27.918;2022-11-13T04:05:25;149628.44;;;9.46;100.00
6599;BME280;3335;43.198;27.918;2022-11-13T04:07:53;149610.97;;;9.39;100.00
6599;BME280;3335;43.198;27.918;2022-11-13T04:10:20;149615.94;;;9.41;100.00
6599;BME280;3335;43.198;27.918;2022-11-13T04:12:47;149610.97;;;9.39;100.00
6599;BME280;3335;43.198;27.918;2022-11-13T04:15:14;149598.50;;;9.34;100.00
6599;BME280;3335;43.198;27.918;2022-11-13T04:17:41;149589.78;;;9.31;100.00
6599;BME280;3335;43.198;27.918;2022-11-13T04:20:09;149508.66;;;8.98;100.00
6599;BME280;3335;43.198;27.918;2022-11-13T04:22:36;149563.56;;;9.20;100.00
6599;BME280;3335;43.198;27.918;2022-11-13T04:25:06;149557.28;;;9.17;100.00
6599;BME280;3335;43.198;27.918;2022-11-13T04:27:33;149549.81;;;9.14;100.00
6599;BME280;3335;43.198;27.918;2022-11-13T04:30:00;149552.31;;;9.15;100.00
6599;BME280;3335;43.198;27.918;2022-11-13T04:32:27;149533.59;;;9.08;100.00
6599;BME280;3335;43.198;27.918;2022-11-13T04:34:54;149529.88;;;9.06;100.00
6599;BME280;3335;43.198;27.918;2022-11-13T04:37:21;149528.63;;;9.06;100.00
6599;BME280;3335;43.198;27.918;2022-11-13T04:39:48;149508.66;;;8.98;100.00
6599;BME280;3335;43.198;27.918;2022-11-13T04:42:16;149486.16;;;8.89;100.00
6599;BME280;3335;43.198;27.918;2022-11-13T04:45:00;149491.19;;;8.91;100.00
6599;BME280;3335;43.198;27.918;2022-11-13T04:47:27;149471.22;;;8.83;100.00
6599;BME280;3335;43.198;27.918;2022-11-13T04:49:54;149466.22;;;8.81;100.00
6599;BME280;3335;43.198;27.918;2022-11-13T04:52:21;149474.94;;;8.84;100.00
6599;BME280;3335;43.198;27.918;2022-11-13T04:54:48;149458.75;;;8.77;100.00
6599;BME280;3335;43.198;27.918;2022-11-13T04:57:16;149448.78;;;8.73;100.00
6599;BME280;3335;43.198;27.918;2022-11-13T04:59:43;149451.25;;;8.74;100.00
6599;BME280;3335;43.198;27.918;2022-11-13T05:02:10;149456.25;;;8.76;100.00
6599;BME280;3335;43.198;27.918;2022-11-13T05:04:37;149446.28;;;8.72;100.00
6599;BME280;3335;43.198;27.918;2022-11-13T05:07:03;149448.78;;;8.73;100.00
6599;BME280;3335;43.198;27.918;2022-11-13T05:09:30;149446.28;;;8.72;100.00
6599;BME280;3335;43.198;27.918;2022-11-13T05:11:57;149436.31;;;8.68;100.00
6599;BME280;3335;43.198;27.918;2022-11-13T05:14:25;149421.31;;;8.62;100.00
6599;BME280;3335;43.198;27.918;2022-11-13T05:16:52;149425.06;;;8.64;100.00
6599;BME280;3335;43.198;27.918;2022-11-13T05:19:19;149415.09;;;8.60;100.00
6599;BME280;3335;43.198;27.918;2022-11-13T05:21:46;149356.50;;;8.36;100.00
6599;BME280;3335;43.198;27.918;2022-11-13T05:24:13;149408.84;;;8.57;100.00
6599;BME280;3335;43.198;27.918;2022-11-13T05:26:40;149403.88;;;8.55;100.00
6599;BME280;3335;43.198;27.918;2022-11-13T05:29:07;149386.41;;;8.48;100.00
6599;BME280;3335;43.198;27.918;2022-11-13T05:31:35;149387.66;;;8.49;100.00
6599;BME280;3335;43.198;27.918;2022-11-13T05:34:04;149403.88;;;8.55;100.00
6599;BME280;3335;43.198;27.918;2022-11-13T05:36:31;149319.03;;;8.21;100.00
6599;BME280;3335;43.198;27.918;2022-11-13T05:38:58;149376.44;;;8.44;100.00
6599;BME280;3335;43.198;27.918;2022-11-13T05:41:25;149386.41;;;8.48;100.00
6599;BME280;3335;43.198;27.918;2022-11-13T05:43:52;149380.19;;;8.46;100.00
6599;BME280;3335;43.198;27.918;2022-11-13T05:46:21;149331.50;;;8.26;100.00
6599;BME280;3335;43.198;27.918;2022-11-13T05:48:53;149391.41;;;8.50;100.00
6599;BME280;3335;43.198;27.918;2022-11-13T05:51:22;149383.91;;;8.47;100.00
6599;BME280;3335;43.198;27.918;2022-11-13T05:53:50;149412.59;;;8.59;100.00
6599;BME280;3335;43.198;27.918;2022-11-13T05:56:18;149393.88;;;8.51;100.00
6599;BME280;3335;43.198;27.918;2022-11-13T05:58:46;149423.81;;;8.63;100.00
6599;BME280;3335;43.198;27.918;2022-11-13T06:01:16;149423.81;;;8.63;100.00
6599;BME280;3335;43.198;27.918;2022-11-13T06:03:44;149408.84;;;8.57;100.00
6599;BME280;3335;43.198;27.918;2022-11-13T06:06:14;149433.78;;;8.67;100.00
6599;BME280;3335;43.198;27.918;2022-11-13T06:08:42;149181.84;;;7.65;100.00
6599;BME280;3335;43.198;27.918;2022-11-13T06:11:11;149460.00;;;8.78;100.00
6599;BME280;3335;43.198;27.918;2022-11-13T06:13:38;149426.34;;;8.64;100.00
6599;BME280;3335;43.198;27.918;2022-11-13T06:16:08;149421.31;;;8.62;100.00
6599;BME280;3335;43.198;27.918;2022-11-13T06:18:36;149463.72;;;8.79;100.00
6599;BME280;3335;43.198;27.918;2022-11-13T06:21:05;149451.25;;;8.74;100.00
6599;BME280;3335;43.198;27.918;2022-11-13T06:23:34;149503.66;;;8.96;100.00
6599;BME280;3335;43.198;27.918;2022-11-13T06:26:04;149559.78;;;9.18;100.00
6599;BME280;3335;43.198;27.918;2022-11-13T06:28:31;149516.13;;;9.01;100.00
6599;BME280;3335;43.198;27.918;2022-11-13T06:31:02;149512.38;;;8.99;100.00
6599;BME280;3335;43.198;27.918;2022-11-13T06:33:29;149526.13;;;9.05;100.00
6599;BME280;3335;43.198;27.918;2022-11-13T06:35:56;149511.13;;;8.99;100.00
6599;BME280;3335;43.198;27.918;2022-11-13T06:38:23;149516.13;;;9.01;100.00
6599;BME280;3335;43.198;27.918;2022-11-13T06:40:52;149532.38;;;9.07;100.00
6599;BME280;3335;43.198;27.918;2022-11-13T06:43:19;149551.06;;;9.15;100.00
6599;BME280;3335;43.198;27.918;2022-11-13T06:45:46;149498.66;;;8.94;100.00
6599;BME280;3335;43.198;27.918;2022-11-13T06:48:13;149559.78;;;9.18;100.00
6599;BME280;3335;43.198;27.918;2022-11-13T06:50:40;149568.53;;;9.22;100.00
6599;BME280;3335;43.198;27.918;2022-11-13T06:53:07;149576.03;;;9.25;100.00
6599;BME280;3335;43.198;27.918;2022-11-13T06:55:34;149584.75;;;9.29;100.00
6599;BME280;3335;43.198;27.918;2022-11-13T06:58:02;149615.94;;;9.41;100.00
6599;BME280;3335;43.198;27.918;2022-11-13T07:00:29;149624.72;;;9.45;100.00
6599;BME280;3335;43.198;27.918;2022-11-13T07:02:56;149615.94;;;9.41;100.00
6599;BME280;3335;43.198;27.918;2022-11-13T07:05:23;149658.41;;;9.58;100.00
6599;BME280;3335;43.198;27.918;2022-11-13T07:07:50;149673.41;;;9.64;100.00
6599;BME280;3335;43.198;27.918;2022-11-13T07:10:17;149685.84;;;9.70;100.00
6599;BME280;3335;43.198;27.918;2022-11-13T07:12:44;149693.38;;;9.73;100.00
6599;BME280;3335;43.198;27.918;2022-11-13T07:15:13;149713.34;;;9.81;100.00
6599;BME280;3335;43.198;27.918;2022-11-13T07:17:40;149705.84;;;9.78;100.00
6599;BME280;3335;43.198;27.918;2022-11-13T07:20:08;149730.84;;;9.88;100.00
6599;BME280;3335;43.198;27.918;2022-11-13T07:22:36;149765.78;;;10.02;100.00
6599;BME280;3335;43.198;27.918;2022-11-13T07:25:03;149788.25;;;10.11;100.00
6599;BME280;3335;43.198;27.918;2022-11-13T07:27:30;149803.25;;;10.17;100.00
6599;BME280;3335;43.198;27.918;2022-11-13T07:29:56;149820.78;;;10.24;100.00
6599;BME280;3335;43.198;27.918;2022-11-13T07:32:25;149842.00;;;10.33;100.00
6599;BME280;3335;43.198;27.918;2022-11-13T07:34:52;149825.78;;;10.26;100.00
6599;BME280;3335;43.198;27.918;2022-11-13T07:37:19;149843.25;;;10.33;100.00
6599;BME280;3335;43.198;27.918;2022-11-13T07:39:45;149858.25;;;10.39;100.00
6599;BME280;3335;43.198;27.918;2022-11-13T07:42:12;149865.72;;;10.42;100.00
6599;BME280;3335;43.198;27.918;2022-11-13T07:44:39;149880.72;;;10.48;100.00
6599;BME280;3335;43.198;27.918;2022-11-13T07:47:06;149895.72;;;10.55;100.00
6599;BME280;3335;43.198;27.918;2022-11-13T07:49:34;149920.66;;;10.65;100.00
6599;BME280;3335;43.198;27.918;2022-11-13T07:52:01;149923.19;;;10.66;100.00
6599;BME280;3335;43.198;27.918;2022-11-13T07:54:28;149960.69;;;10.81;100.00
6599;BME280;3335;43.198;27.918;2022-11-13T07:56:55;149839.50;;;10.32;100.00
6599;BME280;3335;43.198;27.918;2022-11-13T07:59:22;149983.16;;;10.90;100.00
6599;BME280;3335;43.198;27.918;2022-11-13T08:01:49;150024.41;;;11.07;100.00
6599;BME280;3335;43.198;27.918;2022-11-13T08:04:16;150048.16;;;11.16;100.00
6599;BME280;3335;43.198;27.918;2022-11-13T08:06:44;150069.41;;;11.25;100.00
6599;BME280;3335;43.198;27.918;2022-11-13T08:09:11;150094.41;;;11.35;100.00
6599;BME280;3335;43.198;27.918;2022-11-13T08:11:37;150120.63;;;11.46;100.00
6599;BME280;3335;43.198;27.918;2022-11-13T08:14:04;150134.38;;;11.51;100.00
6599;BME280;3335;43.198;27.918;2022-11-13T08:16:31;150150.66;;;11.58;100.00
6599;BME280;3335;43.198;27.918;2022-11-13T08:18:58;150185.66;;;11.72;100.00
6599;BME280;3335;43.198;27.918;2022-11-13T08:21:25;150205.69;;;11.80;100.00
6599;BME280;3335;43.198;27.918;2022-11-13T08:23:53;150220.72;;;11.86;100.00
6599;BME280;3335;43.198;27.918;2022-11-13T08:26:20;150243.22;;;11.95;100.00
6599;BME280;3335;43.198;27.918;2022-11-13T08:28:48;150263.22;;;12.03;100.00
6599;BME280;3335;43.198;27.918;2022-11-13T08:31:15;150273.19;;;12.07;100.00
6599;BME280;3335;43.198;27.918;2022-11-13T08:33:42;150300.72;;;12.18;100.00
6599;BME280;3335;43.198;27.918;2022-11-13T08:36:10;150320.72;;;12.26;100.00
6599;BME280;3335;43.198;27.918;2022-11-13T08:38:37;150343.25;;;12.36;100.00
6599;BME280;3335;43.198;27.918;2022-11-13T08:41:05;150355.75;;;12.41;100.00
6599;BME280;3335;43.198;27.918;2022-11-13T08:43:32;150408.31;;;12.62;100.00
6599;BME280;3335;43.198;27.918;2022-11-13T08:45:59;150440.84;;;12.75;100.00
6599;BME280;3335;43.198;27.918;2022-11-13T08:48:26;150463.34;;;12.84;100.00
6599;BME280;3335;43.198;27.918;2022-11-13T08:50:54;150465.88;;;12.85;100.00
6599;BME280;3335;43.198;27.918;2022-11-13T08:53:21;150487.13;;;12.94;100.00
6599;BME280;3335;43.198;27.918;2022-11-13T08:55:49;150500.91;;;12.99;100.00
6599;BME280;3335;43.198;27.918;2022-11-13T08:58:17;150538.50;;;13.14;100.00
6599;BME280;3335;43.198;27.918;2022-11-13T09:00:44;150566.06;;;13.26;100.00
6599;BME280;3335;43.198;27.918;2022-11-13T09:03:11;150588.59;;;13.35;100.00
6599;BME280;3335;43.198;27.918;2022-11-13T09:05:38;150621.13;;;13.48;100.00
6599;BME280;3335;43.198;27.918;2022-11-13T09:08:05;150626.09;;;13.50;100.00
6599;BME280;3335;43.198;27.918;2022-11-13T09:10:32;150638.63;;;13.55;100.00
6599;BME280;3335;43.198;27.918;2022-11-13T09:13:01;150666.19;;;13.66;100.00
6599;BME280;3335;43.198;27.918;2022-11-13T09:15:31;150681.22;;;13.72;100.00
6599;BME280;3335;43.198;27.918;2022-11-13T09:17:59;150706.28;;;13.82;100.00
6599;BME280;3335;43.198;27.918;2022-11-13T09:20:27;150740.06;;;13.96;100.00
6599;BME280;3335;43.198;27.918;2022-11-13T09:22:57;150758.84;;;14.03;100.00
6599;BME280;3335;43.198;27.918;2022-11-13T09:25:25;150763.88;;;14.06;100.00
6599;BME280;3335;43.198;27.918;2022-11-13T09:27:53;150596.09;;;13.38;100.00
6599;BME280;3335;43.198;27.918;2022-11-13T09:30:21;150797.69;;;14.19;100.00
6599;BME280;3335;43.198;27.918;2022-11-13T09:32:51;150834.00;;;14.34;100.00
6599;BME280;3335;43.198;27.918;2022-11-13T09:35:19;150828.97;;;14.32;100.00
6599;BME280;3335;43.198;27.918;2022-11-13T09:37:59;150867.88;;;14.48;100.00
6599;BME280;3335;43.198;27.918;2022-11-13T09:40:29;150901.69;;;14.61;100.00
6599;BME280;3335;43.198;27.918;2022-11-13T09:42:58;150911.72;;;14.65;100.00
6599;BME280;3335;43.198;27.918;2022-11-13T09:45:27;150929.28;;;14.72;100.00
6599;BME280;3335;43.198;27.918;2022-11-13T09:48:08;150950.56;;;14.81;100.00
6599;BME280;3335;43.198;27.918;2022-11-13T09:50:38;150958.06;;;14.84;100.00
6599;BME280;3335;43.198;27.918;2022-11-13T09:53:06;150981.88;;;14.94;100.00
6599;BME280;3335;43.198;27.918;2022-11-13T09:55:39;150986.91;;;14.96;100.00
6599;BME280;3335;43.198;27.918;2022-11-13T09:58:12;151001.91;;;15.02;100.00
6599;BME280;3335;43.198;27.918;2022-11-13T10:00:42;150986.91;;;14.96;100.00
6599;BME280;3335;43.198;27.918;2022-11-13T10:03:21;150999.44;;;15.01;100.00
6599;BME280;3335;43.198;27.918;2022-11-13T10:05:55;151011.97;;;15.06;100.00
6599;BME280;3335;43.198;27.918;2022-11-13T10:08:27;151013.25;;;15.06;100.00
6599;BME280;3335;43.198;27.918;2022-11-13T10:11:01;150984.41;;;14.95;100.00
6599;BME280;3335;43.198;27.918;2022-11-13T10:13:35;151027.00;;;15.12;100.00
6599;BME280;3335;43.198;27.918;2022-11-13T10:16:24;151003.19;;;15.02;100.00
6599;BME280;3335;43.198;27.918;2022-11-13T10:19:06;151009.47;;;15.05;100.00
6599;BME280;3335;43.198;27.918;2022-11-13T10:21:40;151049.56;;;15.21;100.00
6599;BME280;3335;43.198;27.918;2022-11-13T10:24:14;151054.59;;;15.23;100.00
6599;BME280;3335;43.198;27.918;2022-11-13T10:26:41;151047.06;;;15.20;100.00
6599;BME280;3335;43.198;27.918;2022-11-13T10:29:11;151052.06;;;15.22;100.00
6599;BME280;3335;43.198;27.918;2022-11-13T10:31:43;151016.97;;;15.08;100.00
6599;BME280;3335;43.198;27.918;2022-11-13T10:34:13;150892.94;;;14.58;100.00
6599;BME280;3335;43.198;27.918;2022-11-13T10:36:48;151094.72;;;15.39;100.00
6599;BME280;3335;43.198;27.918;2022-11-13T10:39:17;151122.25;;;15.50;100.00
6599;BME280;3335;43.198;27.918;2022-11-13T10:41:45;151152.44;;;15.62;100.00
6599;BME280;3335;43.198;27.918;2022-11-13T10:44:24;151185.00;;;15.75;100.00
6599;BME280;3335;43.198;27.918;2022-11-13T10:47:03;151207.59;;;15.85;100.00
6599;BME280;3335;43.198;27.918;2022-11-13T10:49:31;151247.72;;;16.01;100.00
6599;BME280;3335;43.198;27.918;2022-11-13T10:51:59;151134.84;;;15.55;100.00
6599;BME280;3335;43.198;27.918;2022-11-13T10:54:29;151235.19;;;15.96;100.00
6599;BME280;3335;43.198;27.918;2022-11-13T10:56:58;151299.13;;;16.22;100.00
6599;BME280;3335;43.198;27.918;2022-11-13T10:59:34;151297.88;;;16.21;100.00
6599;BME280;3335;43.198;27.918;2022-11-13T11:02:12;151410.84;;;16.67;100.00
6599;BME280;3335;43.198;27.918;2022-11-13T11:04:42;151486.09;;;16.97;100.00
6599;BME280;3335;43.198;27.918;2022-11-13T11:07:13;151543.84;;;17.20;100.00
6599;BME280;3335;43.198;27.918;2022-11-13T11:09:40;151589.06;;;17.38;100.00
6599;BME280;3335;43.198;27.918;2022-11-13T11:12:11;151576.50;;;17.33;100.00
6599;BME280;3335;43.198;27.918;2022-11-13T11:14:52;151634.25;;;17.57;100.00
6599;BME280;3335;43.198;27.918;2022-11-13T11:17:24;151684.53;;;17.77;100.00
6599;BME280;3335;43.198;27.918;2022-11-13T11:19:59;151734.72;;;17.97;100.00
6599;BME280;3335;43.198;27.918;2022-11-13T11:22:31;151729.72;;;17.95;100.00
6599;BME280;3335;43.198;27.918;2022-11-13T11:25:03;151746.03;;;18.02;100.00
6599;BME280;3335;43.198;27.918;2022-11-13T11:27:34;151749.81;;;18.03;100.00
6599;BME280;3335;43.198;27.918;2022-11-13T11:30:05;151749.81;;;18.03;100.00
6599;BME280;3335;43.198;27.918;2022-11-13T11:32:42;151778.72;;;18.15;100.00
6599;BME280;3335;43.198;27.918;2022-11-13T11:35:17;151767.41;;;18.10;100.00
6599;BME280;3335;43.198;27.918;2022-11-13T11:37:50;151832.69;;;18.36;100.00
6599;BME280;3335;43.198;27.918;2022-11-13T11:40:26;151772.41;;;18.12;100.00
6599;BME280;3335;43.198;27.918;2022-11-13T11:43:02;151818.88;;;18.31;100.00
6599;BME280;3335;43.198;27.918;2022-11-13T11:45:35;151768.63;;;18.11;100.00
6599;BME280;3335;43.198;27.918;2022-11-13T11:48:07;151641.81;;;17.60;100.00
6599;BME280;3335;43.198;27.918;2022-11-13T11:50:46;151614.19;;;17.48;100.00
6599;BME280;3335;43.198;27.918;2022-11-13T11:53:22;151541.34;;;17.19;100.00
6599;BME280;3335;43.198;27.918;2022-11-13T11:56:10;151532.53;;;17.16;100.00
6599;BME280;3335;43.198;27.918;2022-11-13T11:58:57;151481.09;;;16.95;100.00
6599;BME280;3335;43.198;27.918;2022-11-13T12:01:46;151501.19;;;17.03;100.00
6599;BME280;3335;43.198;27.918;2022-11-13T12:04:29;151488.63;;;16.98;100.00
6599;BME280;3335;43.198;27.918;2022-11-13T12:07:12;151501.19;;;17.03;100.00
6599;BME280;3335;43.198;27.918;2022-11-13T12:09:46;151471.09;;;16.91;100.00
6599;BME280;3335;43.198;27.918;2022-11-13T12:12:24;151492.41;;;16.99;100.00
6599;BME280;3335;43.198;27.918;2022-11-13T12:15:02;151466.03;;;16.89;100.00
6599;BME280;3335;43.198;27.918;2022-11-13T12:17:43;151434.69;;;16.76;100.00
6599;BME280;3335;43.198;27.918;2022-11-13T12:20:21;151456.00;;;16.85;100.00
6599;BME280;3335;43.198;27.918;2022-11-13T12:23:02;151468.56;;;16.90;100.00
6599;BME280;3335;43.198;27.918;2022-11-13T12:25:36;151403.28;;;16.63;100.00
6599;BME280;3335;43.198;27.918;2022-11-13T12:28:26;151383.19;;;16.55;100.00
6599;BME280;3335;43.198;27.918;2022-11-13T12:31:04;151393.25;;;16.59;100.00
6599;BME280;3335;43.198;27.918;2022-11-13T12:33:41;151394.50;;;16.60;100.00
6599;BME280;3335;43.198;27.918;2022-11-13T12:36:12;151410.84;;;16.67;100.00
6599;BME280;3335;43.198;27.918;2022-11-13T12:38:44;151373.16;;;16.51;100.00
6599;BME280;3335;43.198;27.918;2022-11-13T12:41:19;151394.50;;;16.60;100.00
6599;BME280;3335;43.198;27.918;2022-11-13T12:44:02;151383.19;;;16.55;100.00
6599;BME280;3335;43.198;27.918;2022-11-13T12:46:34;151280.31;;;16.14;100.00
6599;BME280;3335;43.198;27.918;2022-11-13T12:49:13;151297.88;;;16.21;100.00
6599;BME280;3335;43.198;27.918;2022-11-13T12:51:53;151365.63;;;16.48;100.00
6599;BME280;3335;43.198;27.918;2022-11-13T12:54:26;151157.41;;;15.64;100.00
6599;BME280;3335;43.198;27.918;2022-11-13T12:59:48;151275.28;;;16.12;100.00
6599;BME280;3335;43.198;27.918;2022-11-13T13:02:36;151247.72;;;16.01;100.00
6599;BME280;3335;43.198;27.918;2022-11-13T13:05:20;151261.47;;;16.06;100.00
6599;BME280;3335;43.198;27.918;2022-11-13T13:08:22;151275.28;;;16.12;100.00